<?xml version='1.0' encoding='UTF-8'?>
<gpx xmlns="http://www.topografix.com/GPX/1/1" creator="www.balnam.be" version="1.1" xmlns:xsi="http://www.w3.org/2001/XMLSchema-instance" xsi:schemaLocation="http://www.topografix.com/GPX/1/1 http://www.topografix.com/GPX/1/1/gpx.xsd">
<trk>
<name>hllhl1</name>
<cmt>s</cmt>
<desc>Haine-Saint-Paul Chemin n°1 </desc>
<link href="https://chemins.be/hainesaintpaul/chemin/1"/><trkseg>
<trkpt lat="50.477293" lon="4.216694"><time>2026-05-03T04:01:56Z</time></trkpt>
<trkpt lat="50.476665" lon="4.213793"><time>2026-05-03T04:11:56Z</time></trkpt>
</trkseg></trk>
<trk>
<name>hllhl1</name>
<cmt>q</cmt>
<desc>Haine-Saint-Paul Chemin n°1 </desc>
<link href="https://chemins.be/hainesaintpaul/chemin/1"/><trkseg>
<trkpt lat="50.476665" lon="4.213793"><time>2026-05-03T04:11:56Z</time></trkpt>
<trkpt lat="50.476564" lon="4.213391"><time>2026-05-03T04:21:56Z</time></trkpt>
<trkpt lat="50.476579" lon="4.213052"><time>2026-05-03T04:31:56Z</time></trkpt>
</trkseg>
</trk>
<trk>
<name>hllhl10</name>
<cmt>v</cmt>
<desc>Haine-Saint-Paul Chemin n°10 </desc>
<link href="https://chemins.be/hainesaintpaul/chemin/10"/><trkseg>
<trkpt lat="50.456437" lon="4.188519"><time>2026-05-03T04:01:56Z</time></trkpt>
<trkpt lat="50.456910" lon="4.188945"><time>2026-05-03T04:11:56Z</time></trkpt>
</trkseg></trk>
<trk>
<name>hllhl10</name>
<cmt>q</cmt>
<desc>Haine-Saint-Paul Chemin n°10 </desc>
<link href="https://chemins.be/hainesaintpaul/chemin/10"/><trkseg>
<trkpt lat="50.456910" lon="4.188945"><time>2026-05-03T04:11:56Z</time></trkpt>
<trkpt lat="50.458870" lon="4.190555"><time>2026-05-03T04:21:56Z</time></trkpt>
<trkpt lat="50.459355" lon="4.189836"><time>2026-05-03T04:31:56Z</time></trkpt>
</trkseg>
</trk>
<trk>
<name>hllhl11</name>
<cmt>v</cmt>
<desc>Haine-Saint-Paul Chemin n°11 </desc>
<link href="https://chemins.be/hainesaintpaul/chemin/11"/><trkseg>
<trkpt lat="50.456136" lon="4.188319"><time>2026-05-03T04:01:56Z</time></trkpt>
<trkpt lat="50.456098" lon="4.188141"><time>2026-05-03T04:11:56Z</time></trkpt>
<trkpt lat="50.456081" lon="4.188061"><time>2026-05-03T04:21:56Z</time></trkpt>
<trkpt lat="50.456022" lon="4.187805"><time>2026-05-03T04:31:56Z</time></trkpt>
<trkpt lat="50.456008" lon="4.187656"><time>2026-05-03T04:41:56Z</time></trkpt>
<trkpt lat="50.456003" lon="4.187496"><time>2026-05-03T04:51:56Z</time></trkpt>
<trkpt lat="50.456010" lon="4.187348"><time>2026-05-03T05:01:56Z</time></trkpt>
<trkpt lat="50.456032" lon="4.187162"><time>2026-05-03T05:11:56Z</time></trkpt>
<trkpt lat="50.456036" lon="4.187136"><time>2026-05-03T05:21:56Z</time></trkpt>
<trkpt lat="50.456098" lon="4.186747"><time>2026-05-03T05:31:56Z</time></trkpt>
<trkpt lat="50.456104" lon="4.186712"><time>2026-05-03T05:41:56Z</time></trkpt>
<trkpt lat="50.456199" lon="4.186206"><time>2026-05-03T05:51:56Z</time></trkpt>
<trkpt lat="50.456291" lon="4.185731"><time>2026-05-03T06:01:56Z</time></trkpt>
<trkpt lat="50.456337" lon="4.185497"><time>2026-05-03T06:11:56Z</time></trkpt>
<trkpt lat="50.456494" lon="4.184730"><time>2026-05-03T06:21:56Z</time></trkpt>
<trkpt lat="50.456503" lon="4.184683"><time>2026-05-03T06:31:56Z</time></trkpt>
<trkpt lat="50.456552" lon="4.184426"><time>2026-05-03T06:41:56Z</time></trkpt>
<trkpt lat="50.456612" lon="4.184114"><time>2026-05-03T06:51:56Z</time></trkpt>
<trkpt lat="50.456684" lon="4.183802"><time>2026-05-03T07:01:56Z</time></trkpt>
<trkpt lat="50.456849" lon="4.183549"><time>2026-05-03T07:11:56Z</time></trkpt>
<trkpt lat="50.457006" lon="4.183292"><time>2026-05-03T07:21:56Z</time></trkpt>
<trkpt lat="50.457119" lon="4.182863"><time>2026-05-03T07:31:56Z</time></trkpt>
<trkpt lat="50.457231" lon="4.182375"><time>2026-05-03T07:41:56Z</time></trkpt>
<trkpt lat="50.457268" lon="4.182167"><time>2026-05-03T07:51:56Z</time></trkpt>
<trkpt lat="50.457287" lon="4.182048"><time>2026-05-03T08:01:56Z</time></trkpt>
<trkpt lat="50.457302" lon="4.181921"><time>2026-05-03T08:11:56Z</time></trkpt>
<trkpt lat="50.457303" lon="4.181767"><time>2026-05-03T08:21:56Z</time></trkpt>
<trkpt lat="50.457301" lon="4.181748"><time>2026-05-03T08:31:56Z</time></trkpt>
<trkpt lat="50.457292" lon="4.181682"><time>2026-05-03T08:41:56Z</time></trkpt>
<trkpt lat="50.457260" lon="4.181556"><time>2026-05-03T08:51:56Z</time></trkpt>
<trkpt lat="50.457240" lon="4.181475"><time>2026-05-03T09:01:56Z</time></trkpt>
<trkpt lat="50.457187" lon="4.181371"><time>2026-05-03T09:11:56Z</time></trkpt>
<trkpt lat="50.457137" lon="4.181291"><time>2026-05-03T09:21:56Z</time></trkpt>
<trkpt lat="50.457077" lon="4.181238"><time>2026-05-03T09:31:56Z</time></trkpt>
</trkseg>
</trk>
<trk>
<name>hllhl12</name>
<cmt>v</cmt>
<desc>Haine-Saint-Paul Chemin n°12 </desc>
<link href="https://chemins.be/hainesaintpaul/chemin/12"/><trkseg>
<trkpt lat="50.454964" lon="4.185190"><time>2026-05-03T04:01:56Z</time></trkpt>
<trkpt lat="50.453761" lon="4.184439"><time>2026-05-03T04:11:56Z</time></trkpt>
<trkpt lat="50.452484" lon="4.182664"><time>2026-05-03T04:21:56Z</time></trkpt>
</trkseg>
</trk>
<trk>
<name>hllhl14</name>
<cmt>v</cmt>
<desc>Haine-Saint-Paul Chemin n°14 </desc>
<link href="https://chemins.be/hainesaintpaul/chemin/14"/><trkseg>
<trkpt lat="50.450571" lon="4.183699"><time>2026-05-03T04:01:56Z</time></trkpt>
<trkpt lat="50.452497" lon="4.182658"><time>2026-05-03T04:11:56Z</time></trkpt>
</trkseg></trk>
<trk>
<name>hllhl14</name>
<cmt>q</cmt>
<desc>Haine-Saint-Paul Chemin n°14 </desc>
<link href="https://chemins.be/hainesaintpaul/chemin/14"/><trkseg>
<trkpt lat="50.452497" lon="4.182658"><time>2026-05-03T04:11:56Z</time></trkpt>
<trkpt lat="50.454570" lon="4.182323"><time>2026-05-03T04:21:56Z</time></trkpt>
<trkpt lat="50.456227" lon="4.181993"><time>2026-05-03T04:31:56Z</time></trkpt>
</trkseg></trk>
<trk>
<name>hllhl14</name>
<cmt>r</cmt>
<desc>Haine-Saint-Paul Chemin n°14 </desc>
<link href="https://chemins.be/hainesaintpaul/chemin/14"/><trkseg>
<trkpt lat="50.456227" lon="4.181993"><time>2026-05-03T04:31:56Z</time></trkpt>
<trkpt lat="50.456582" lon="4.180974"><time>2026-05-03T04:41:56Z</time></trkpt>
</trkseg>
</trk>
<trk>
<name>hllhl16</name>
<cmt>r</cmt>
<desc>Haine-Saint-Paul Sentier n°16 Rue Gaston Hoyaux</desc>
<link href="https://chemins.be/hainesaintpaul/sentier/16"/><trkseg>
<trkpt lat="50.475124" lon="4.220102"><time>2026-05-03T04:01:56Z</time></trkpt>
<trkpt lat="50.476115" lon="4.218729"><time>2026-05-03T04:11:56Z</time></trkpt>
<trkpt lat="50.477430" lon="4.216909"><time>2026-05-03T04:21:56Z</time></trkpt>
</trkseg>
</trk>
<trk>
<name>hllhl17</name>
<cmt>r</cmt>
<desc>Haine-Saint-Paul Sentier n°17 Rue des Rentiers</desc>
<link href="https://chemins.be/hainesaintpaul/sentier/17"/><trkseg>
<trkpt lat="50.474311" lon="4.203090"><time>2026-05-03T04:01:56Z</time></trkpt>
<trkpt lat="50.474862" lon="4.204232"><time>2026-05-03T04:11:56Z</time></trkpt>
</trkseg></trk>
<trk>
<name>hllhl17</name>
<cmt>s</cmt>
<desc>Haine-Saint-Paul Sentier n°17 Rue des Rentiers</desc>
<link href="https://chemins.be/hainesaintpaul/sentier/17"/><trkseg>
<trkpt lat="50.474862" lon="4.204232"><time>2026-05-03T04:11:56Z</time></trkpt>
<trkpt lat="50.475037" lon="4.206292"><time>2026-05-03T04:21:56Z</time></trkpt>
<trkpt lat="50.475223" lon="4.208676"><time>2026-05-03T04:31:56Z</time></trkpt>
</trkseg></trk>
<trk>
<name>hllhl17</name>
<cmt>q</cmt>
<desc>Haine-Saint-Paul Sentier n°17 Rue des Rentiers</desc>
<link href="https://chemins.be/hainesaintpaul/sentier/17"/><trkseg>
<trkpt lat="50.475223" lon="4.208676"><time>2026-05-03T04:31:56Z</time></trkpt>
<trkpt lat="50.475321" lon="4.209931"><time>2026-05-03T04:41:56Z</time></trkpt>
<trkpt lat="50.476596" lon="4.213027"><time>2026-05-03T04:51:56Z</time></trkpt>
</trkseg>
</trk>
<trk>
<name>hllhl18</name>
<cmt>s</cmt>
<desc>Haine-Saint-Paul Sentier n°18 </desc>
<link href="https://chemins.be/hainesaintpaul/sentier/18"/><trkseg>
<trkpt lat="50.474624" lon="4.203711"><time>2026-05-03T04:01:56Z</time></trkpt>
<trkpt lat="50.475721" lon="4.202745"><time>2026-05-03T04:11:56Z</time></trkpt>
</trkseg>
</trk>
<trk>
<name>hllhl19</name>
<cmt>s</cmt>
<desc>Haine-Saint-Paul Sentier n°19 </desc>
<link href="https://chemins.be/hainesaintpaul/sentier/19"/><trkseg>
<trkpt lat="50.468995" lon="4.210618"><time>2026-05-03T04:01:56Z</time></trkpt>
<trkpt lat="50.470727" lon="4.211012"><time>2026-05-03T04:11:56Z</time></trkpt>
<trkpt lat="50.471514" lon="4.211424"><time>2026-05-03T04:21:56Z</time></trkpt>
</trkseg>
</trk>
<trk>
<name>hllhl2</name>
<cmt>v</cmt>
<desc>Haine-Saint-Paul Chemin n°2 </desc>
<link href="https://chemins.be/hainesaintpaul/chemin/2"/><trkseg>
<trkpt lat="50.462401" lon="4.198550"><time>2026-05-03T04:01:56Z</time></trkpt>
<trkpt lat="50.462848" lon="4.198220"><time>2026-05-03T04:11:56Z</time></trkpt>
</trkseg></trk>
<trk>
<name>hllhl2</name>
<cmt>s</cmt>
<desc>Haine-Saint-Paul Chemin n°2 </desc>
<link href="https://chemins.be/hainesaintpaul/chemin/2"/><trkseg>
<trkpt lat="50.462848" lon="4.198220"><time>2026-05-03T04:11:56Z</time></trkpt>
<trkpt lat="50.463718" lon="4.197211"><time>2026-05-03T04:21:56Z</time></trkpt>
<trkpt lat="50.465537" lon="4.195734"><time>2026-05-03T04:31:56Z</time></trkpt>
<trkpt lat="50.467373" lon="4.196352"><time>2026-05-03T04:41:56Z</time></trkpt>
</trkseg>
</trk>
<trk>
<name>hllhl20</name>
<cmt>s</cmt>
<desc>Haine-Saint-Paul Sentier n°20 </desc>
<link href="https://chemins.be/hainesaintpaul/sentier/20"/><trkseg>
<trkpt lat="50.471841" lon="4.211716"><time>2026-05-03T04:01:56Z</time></trkpt>
<trkpt lat="50.472136" lon="4.215673"><time>2026-05-03T04:11:56Z</time></trkpt>
</trkseg>
</trk>
<trk>
<name>hllhl21</name>
<cmt>q</cmt>
<desc>Haine-Saint-Paul Sentier n°21 </desc>
<link href="https://chemins.be/hainesaintpaul/sentier/21"/><trkseg>
<trkpt lat="50.470809" lon="4.207751"><time>2026-05-03T04:01:56Z</time></trkpt>
<trkpt lat="50.470536" lon="4.205150"><time>2026-05-03T04:11:56Z</time></trkpt>
<trkpt lat="50.469962" lon="4.203313"><time>2026-05-03T04:21:56Z</time></trkpt>
<trkpt lat="50.468980" lon="4.199910"><time>2026-05-03T04:31:56Z</time></trkpt>
<trkpt lat="50.468420" lon="4.195792"><time>2026-05-03T04:41:56Z</time></trkpt>
</trkseg></trk>
<trk>
<name>hllhl21</name>
<cmt>r</cmt>
<desc>Haine-Saint-Paul Sentier n°21 </desc>
<link href="https://chemins.be/hainesaintpaul/sentier/21"/><trkseg>
<trkpt lat="50.468420" lon="4.195792"><time>2026-05-03T04:41:56Z</time></trkpt>
<trkpt lat="50.468158" lon="4.194839"><time>2026-05-03T04:51:56Z</time></trkpt>
</trkseg></trk>
<trk>
<name>hllhl21</name>
<cmt>q</cmt>
<desc>Haine-Saint-Paul Sentier n°21 </desc>
<link href="https://chemins.be/hainesaintpaul/sentier/21"/><trkseg>
<trkpt lat="50.468158" lon="4.194839"><time>2026-05-03T04:51:56Z</time></trkpt>
<trkpt lat="50.467886" lon="4.194044"><time>2026-05-03T05:01:56Z</time></trkpt>
</trkseg></trk>
<trk>
<name>hllhl21</name>
<cmt>s</cmt>
<desc>Haine-Saint-Paul Sentier n°21 </desc>
<link href="https://chemins.be/hainesaintpaul/sentier/21"/><trkseg>
<trkpt lat="50.467886" lon="4.194044"><time>2026-05-03T05:01:56Z</time></trkpt>
<trkpt lat="50.467214" lon="4.192765"><time>2026-05-03T05:11:56Z</time></trkpt>
<trkpt lat="50.465373" lon="4.190001"><time>2026-05-03T05:21:56Z</time></trkpt>
<trkpt lat="50.466428" lon="4.191340"><time>2026-05-03T05:31:56Z</time></trkpt>
</trkseg>
</trk>
<trk>
<name>hllhl22</name>
<cmt>q</cmt>
<desc>Haine-Saint-Paul Sentier n°22 Rue Blanche Cavée</desc>
<link href="https://chemins.be/hainesaintpaul/sentier/22"/><trkseg>
<trkpt lat="50.456987" lon="4.188262"><time>2026-05-03T04:01:56Z</time></trkpt>
<trkpt lat="50.459157" lon="4.188870"><time>2026-05-03T04:11:56Z</time></trkpt>
<trkpt lat="50.460903" lon="4.190135"><time>2026-05-03T04:21:56Z</time></trkpt>
<trkpt lat="50.461824" lon="4.190802"><time>2026-05-03T04:31:56Z</time></trkpt>
</trkseg></trk>
<trk>
<name>hllhl22</name>
<cmt>v</cmt>
<desc>Haine-Saint-Paul Sentier n°22 Rue Blanche Cavée</desc>
<link href="https://chemins.be/hainesaintpaul/sentier/22"/><trkseg>
<trkpt lat="50.461824" lon="4.190802"><time>2026-05-03T04:31:56Z</time></trkpt>
<trkpt lat="50.462466" lon="4.191539"><time>2026-05-03T04:41:56Z</time></trkpt>
<trkpt lat="50.462800" lon="4.191486"><time>2026-05-03T04:51:56Z</time></trkpt>
</trkseg></trk>
<trk>
<name>hllhl22</name>
<cmt>q</cmt>
<desc>Haine-Saint-Paul Sentier n°22 Rue Blanche Cavée</desc>
<link href="https://chemins.be/hainesaintpaul/sentier/22"/><trkseg>
<trkpt lat="50.462800" lon="4.191486"><time>2026-05-03T04:51:56Z</time></trkpt>
<trkpt lat="50.463210" lon="4.191846"><time>2026-05-03T05:01:56Z</time></trkpt>
</trkseg></trk>
<trk>
<name>hllhl22</name>
<cmt>s</cmt>
<desc>Haine-Saint-Paul Sentier n°22 Rue Blanche Cavée</desc>
<link href="https://chemins.be/hainesaintpaul/sentier/22"/><trkseg>
<trkpt lat="50.463210" lon="4.191846"><time>2026-05-03T05:01:56Z</time></trkpt>
<trkpt lat="50.468333" lon="4.195799"><time>2026-05-03T05:11:56Z</time></trkpt>
</trkseg>
</trk>
<trk>
<name>hllhl23</name>
<cmt>q</cmt>
<desc>Haine-Saint-Paul Sentier n°23 Rue Coron Postia</desc>
<link href="https://chemins.be/hainesaintpaul/sentier/23"/><trkseg>
<trkpt lat="50.458447" lon="4.188578"><time>2026-05-03T04:01:56Z</time></trkpt>
<trkpt lat="50.458573" lon="4.187870"><time>2026-05-03T04:11:56Z</time></trkpt>
<trkpt lat="50.458988" lon="4.187257"><time>2026-05-03T04:21:56Z</time></trkpt>
</trkseg></trk>
<trk>
<name>hllhl23</name>
<cmt>r</cmt>
<desc>Haine-Saint-Paul Sentier n°23 Rue Coron Postia</desc>
<link href="https://chemins.be/hainesaintpaul/sentier/23"/><trkseg>
<trkpt lat="50.458988" lon="4.187257"><time>2026-05-03T04:21:56Z</time></trkpt>
<trkpt lat="50.459544" lon="4.186953"><time>2026-05-03T04:31:56Z</time></trkpt>
<trkpt lat="50.460479" lon="4.185955"><time>2026-05-03T04:41:56Z</time></trkpt>
<trkpt lat="50.460671" lon="4.185332"><time>2026-05-03T04:51:56Z</time></trkpt>
</trkseg></trk>
<trk>
<name>hllhl23</name>
<cmt>v</cmt>
<desc>Haine-Saint-Paul Sentier n°23 Rue Coron Postia</desc>
<link href="https://chemins.be/hainesaintpaul/sentier/23"/><trkseg>
<trkpt lat="50.460671" lon="4.185332"><time>2026-05-03T04:51:56Z</time></trkpt>
<trkpt lat="50.461162" lon="4.186180"><time>2026-05-03T05:01:56Z</time></trkpt>
</trkseg>
</trk>
<trk>
<name>hllhl24</name>
<cmt>r</cmt>
<desc>Haine-Saint-Paul Sentier n°24 </desc>
<link href="https://chemins.be/hainesaintpaul/sentier/24"/><trkseg>
<trkpt lat="50.458474" lon="4.196504"><time>2026-05-03T04:01:56Z</time></trkpt>
<trkpt lat="50.459198" lon="4.195656"><time>2026-05-03T04:11:56Z</time></trkpt>
</trkseg></trk>
<trk>
<name>hllhl24</name>
<cmt>q</cmt>
<desc>Haine-Saint-Paul Sentier n°24 </desc>
<link href="https://chemins.be/hainesaintpaul/sentier/24"/><trkseg>
<trkpt lat="50.459198" lon="4.195656"><time>2026-05-03T04:11:56Z</time></trkpt>
<trkpt lat="50.459635" lon="4.195216"><time>2026-05-03T04:21:56Z</time></trkpt>
<trkpt lat="50.460712" lon="4.194683"><time>2026-05-03T04:31:56Z</time></trkpt>
<trkpt lat="50.463083" lon="4.194056"><time>2026-05-03T04:41:56Z</time></trkpt>
<trkpt lat="50.463408" lon="4.193785"><time>2026-05-03T04:51:56Z</time></trkpt>
</trkseg></trk>
<trk>
<name>hllhl24</name>
<cmt>s</cmt>
<desc>Haine-Saint-Paul Sentier n°24 </desc>
<link href="https://chemins.be/hainesaintpaul/sentier/24"/><trkseg>
<trkpt lat="50.463408" lon="4.193785"><time>2026-05-03T04:51:56Z</time></trkpt>
<trkpt lat="50.466470" lon="4.191224"><time>2026-05-03T05:01:56Z</time></trkpt>
</trkseg>
</trk>
<trk>
<name>hllhl25</name>
<cmt>q</cmt>
<desc>Haine-Saint-Paul Sentier n°25 Rue du Quéniau</desc>
<link href="https://chemins.be/hainesaintpaul/sentier/25"/><trkseg>
<trkpt lat="50.460813" lon="4.195466"><time>2026-05-03T04:01:56Z</time></trkpt>
<trkpt lat="50.460547" lon="4.193851"><time>2026-05-03T04:11:56Z</time></trkpt>
</trkseg>
</trk>
<trk>
<name>hllhl26</name>
<cmt>q</cmt>
<desc>Haine-Saint-Paul Sentier n°26 </desc>
<link href="https://chemins.be/hainesaintpaul/sentier/26"/><trkseg>
<trkpt lat="50.456913" lon="4.189008"><time>2026-05-03T04:01:56Z</time></trkpt>
<trkpt lat="50.457425" lon="4.191583"><time>2026-05-03T04:11:56Z</time></trkpt>
<trkpt lat="50.457070" lon="4.192666"><time>2026-05-03T04:21:56Z</time></trkpt>
</trkseg>
</trk>
<trk>
<name>hllhl27</name>
<cmt>v</cmt>
<desc>Haine-Saint-Paul Sentier n°27 Sentier des Bourdons</desc>
<link href="https://chemins.be/hainesaintpaul/sentier/27"/><trkseg>
<trkpt lat="50.456028" lon="4.191583"><time>2026-05-03T04:01:56Z</time></trkpt>
<trkpt lat="50.456277" lon="4.191658"><time>2026-05-03T04:11:56Z</time></trkpt>
<trkpt lat="50.457047" lon="4.192649"><time>2026-05-03T04:21:56Z</time></trkpt>
</trkseg></trk>
<trk>
<name>hllhl27</name>
<cmt>r</cmt>
<desc>Haine-Saint-Paul Sentier n°27 Sentier des Bourdons</desc>
<link href="https://chemins.be/hainesaintpaul/sentier/27"/><trkseg>
<trkpt lat="50.457047" lon="4.192649"><time>2026-05-03T04:21:56Z</time></trkpt>
<trkpt lat="50.459091" lon="4.195653"><time>2026-05-03T04:31:56Z</time></trkpt>
<trkpt lat="50.460358" lon="4.197833"><time>2026-05-03T04:41:56Z</time></trkpt>
<trkpt lat="50.460490" lon="4.198262"><time>2026-05-03T04:51:56Z</time></trkpt>
</trkseg>
</trk>
<trk>
<name>hllhl28</name>
<cmt>r</cmt>
<desc>Haine-Saint-Paul Sentier n°28 Avenue Louise</desc>
<link href="https://chemins.be/hainesaintpaul/sentier/28"/><trkseg>
<trkpt lat="50.455374" lon="4.193743"><time>2026-05-03T04:01:56Z</time></trkpt>
<trkpt lat="50.455729" lon="4.191280"><time>2026-05-03T04:11:56Z</time></trkpt>
<trkpt lat="50.455991" lon="4.189503"><time>2026-05-03T04:21:56Z</time></trkpt>
<trkpt lat="50.456341" lon="4.188490"><time>2026-05-03T04:31:56Z</time></trkpt>
</trkseg>
</trk>
<trk>
<name>hllhl29</name>
<cmt>v</cmt>
<desc>Haine-Saint-Paul Sentier n°29 </desc>
<link href="https://chemins.be/hainesaintpaul/sentier/29"/><trkseg>
<trkpt lat="50.462409" lon="4.198496"><time>2026-05-03T04:01:56Z</time></trkpt>
<trkpt lat="50.462836" lon="4.198197"><time>2026-05-03T04:11:56Z</time></trkpt>
</trkseg></trk>
<trk>
<name>hllhl29</name>
<cmt>s</cmt>
<desc>Haine-Saint-Paul Sentier n°29 </desc>
<link href="https://chemins.be/hainesaintpaul/sentier/29"/><trkseg>
<trkpt lat="50.462836" lon="4.198197"><time>2026-05-03T04:11:56Z</time></trkpt>
<trkpt lat="50.463067" lon="4.197852"><time>2026-05-03T04:21:56Z</time></trkpt>
</trkseg>
</trk>
<trk>
<name>hllhl30</name>
<cmt>v</cmt>
<desc>Haine-Saint-Paul Sentier n°30 Chaussée de Mons</desc>
<link href="https://chemins.be/hainesaintpaul/sentier/30"/><trkseg>
<trkpt lat="50.454095" lon="4.190035"><time>2026-05-03T04:01:56Z</time></trkpt>
<trkpt lat="50.453827" lon="4.191697"><time>2026-05-03T04:11:56Z</time></trkpt>
<trkpt lat="50.453774" lon="4.192078"><time>2026-05-03T04:21:56Z</time></trkpt>
<trkpt lat="50.453711" lon="4.192303"><time>2026-05-03T04:31:56Z</time></trkpt>
<trkpt lat="50.453829" lon="4.192500"><time>2026-05-03T04:41:56Z</time></trkpt>
<trkpt lat="50.453785" lon="4.193317"><time>2026-05-03T04:51:56Z</time></trkpt>
</trkseg></trk>
<trk>
<name>hllhl30</name>
<cmt>d</cmt>
<desc>Haine-Saint-Paul Sentier n°30 Chaussée de Mons</desc>
<link href="https://chemins.be/hainesaintpaul/sentier/30"/><trkseg>
<trkpt lat="50.453785" lon="4.193317"><time>2026-05-03T04:51:56Z</time></trkpt>
<trkpt lat="50.453678" lon="4.193796"><time>2026-05-03T05:01:56Z</time></trkpt>
<trkpt lat="50.453778" lon="4.194810"><time>2026-05-03T05:11:56Z</time></trkpt>
</trkseg>
</trk>
<trk>
<name>hllhl31</name>
<cmt>r</cmt>
<desc>Haine-Saint-Paul Sentier n°31 Sentier de la Haine</desc>
<link href="https://chemins.be/hainesaintpaul/sentier/31"/><trkseg>
<trkpt lat="50.455707" lon="4.191269"><time>2026-05-03T04:01:56Z</time></trkpt>
<trkpt lat="50.455423" lon="4.191119"><time>2026-05-03T04:11:56Z</time></trkpt>
<trkpt lat="50.455201" lon="4.191582"><time>2026-05-03T04:21:56Z</time></trkpt>
<trkpt lat="50.454933" lon="4.191969"><time>2026-05-03T04:31:56Z</time></trkpt>
<trkpt lat="50.454761" lon="4.192140"><time>2026-05-03T04:41:56Z</time></trkpt>
</trkseg>
</trk>
<trk>
<name>hllhl32</name>
<cmt>r</cmt>
<desc>Haine-Saint-Paul Sentier n°32 Rue Warichet</desc>
<link href="https://chemins.be/hainesaintpaul/sentier/32"/><trkseg>
<trkpt lat="50.455994" lon="4.189540"><time>2026-05-03T04:01:56Z</time></trkpt>
<trkpt lat="50.454876" lon="4.189364"><time>2026-05-03T04:11:56Z</time></trkpt>
</trkseg></trk>
<trk>
<name>hllhl32</name>
<cmt>q</cmt>
<desc>Haine-Saint-Paul Sentier n°32 Rue Warichet</desc>
<link href="https://chemins.be/hainesaintpaul/sentier/32"/><trkseg>
<trkpt lat="50.454876" lon="4.189364"><time>2026-05-03T04:11:56Z</time></trkpt>
<trkpt lat="50.454677" lon="4.188982"><time>2026-05-03T04:21:56Z</time></trkpt>
</trkseg>
</trk>
<trk>
<name>hllhl33</name>
<cmt>r</cmt>
<desc>Haine-Saint-Paul Sentier n°33 </desc>
<link href="https://chemins.be/hainesaintpaul/sentier/33"/><trkseg>
<trkpt lat="50.455392" lon="4.189510"><time>2026-05-03T04:01:56Z</time></trkpt>
<trkpt lat="50.455341" lon="4.190106"><time>2026-05-03T04:11:56Z</time></trkpt>
<trkpt lat="50.455188" lon="4.190767"><time>2026-05-03T04:21:56Z</time></trkpt>
</trkseg>
</trk>
<trk>
<name>hllhl34</name>
<cmt>q</cmt>
<desc>Haine-Saint-Paul Sentier n°34 </desc>
<link href="https://chemins.be/hainesaintpaul/sentier/34"/><trkseg>
<trkpt lat="50.456876" lon="4.183484"><time>2026-05-03T04:01:56Z</time></trkpt>
<trkpt lat="50.456726" lon="4.182905"><time>2026-05-03T04:11:56Z</time></trkpt>
<trkpt lat="50.456828" lon="4.182744"><time>2026-05-03T04:21:56Z</time></trkpt>
<trkpt lat="50.456872" lon="4.181223"><time>2026-05-03T04:31:56Z</time></trkpt>
</trkseg></trk>
<trk>
<name>hllhl34</name>
<cmt>r</cmt>
<desc>Haine-Saint-Paul Sentier n°34 </desc>
<link href="https://chemins.be/hainesaintpaul/sentier/34"/><trkseg>
<trkpt lat="50.456872" lon="4.181223"><time>2026-05-03T04:31:56Z</time></trkpt>
<trkpt lat="50.456589" lon="4.180982"><time>2026-05-03T04:41:56Z</time></trkpt>
<trkpt lat="50.456483" lon="4.180628"><time>2026-05-03T04:51:56Z</time></trkpt>
<trkpt lat="50.456313" lon="4.179935"><time>2026-05-03T05:01:56Z</time></trkpt>
<trkpt lat="50.456494" lon="4.179227"><time>2026-05-03T05:11:56Z</time></trkpt>
<trkpt lat="50.456336" lon="4.176854"><time>2026-05-03T05:21:56Z</time></trkpt>
</trkseg></trk>
<trk>
<name>hllhl34</name>
<cmt>q</cmt>
<desc>Haine-Saint-Paul Sentier n°34 </desc>
<link href="https://chemins.be/hainesaintpaul/sentier/34"/><trkseg>
<trkpt lat="50.456336" lon="4.176854"><time>2026-05-03T05:21:56Z</time></trkpt>
<trkpt lat="50.456569" lon="4.176210"><time>2026-05-03T05:31:56Z</time></trkpt>
</trkseg>
</trk>
<trk>
<name>hllhl34bis</name>
<cmt>q</cmt>
<desc>Haine-Saint-Paul Sentier n°34bis </desc>
<link href="https://chemins.be/hainesaintpaul/sentier/34bis"/><trkseg>
<trkpt lat="50.456490" lon="4.185619"><time>2026-05-03T04:01:56Z</time></trkpt>
<trkpt lat="50.456374" lon="4.186859"><time>2026-05-03T04:11:56Z</time></trkpt>
<trkpt lat="50.456128" lon="4.186859"><time>2026-05-03T04:21:56Z</time></trkpt>
</trkseg>
</trk>
<trk>
<name>hllhl35</name>
<cmt>q</cmt>
<desc>Haine-Saint-Paul Sentier n°35 </desc>
<link href="https://chemins.be/hainesaintpaul/sentier/35"/><trkseg>
<trkpt lat="50.455107" lon="4.184782"><time>2026-05-03T04:01:56Z</time></trkpt>
<trkpt lat="50.454929" lon="4.183441"><time>2026-05-03T04:11:56Z</time></trkpt>
<trkpt lat="50.453174" lon="4.177991"><time>2026-05-03T04:21:56Z</time></trkpt>
</trkseg>
</trk>
<trk>
<name>hllhl36</name>
<cmt>r</cmt>
<desc>Haine-Saint-Paul Sentier n°36 Rue d'Avondance</desc>
<link href="https://chemins.be/hainesaintpaul/sentier/36"/><trkseg>
<trkpt lat="50.456227" lon="4.181961"><time>2026-05-03T04:01:56Z</time></trkpt>
<trkpt lat="50.455120" lon="4.184777"><time>2026-05-03T04:11:56Z</time></trkpt>
</trkseg>
</trk>
<trk>
<name>hllhl37</name>
<cmt>r</cmt>
<desc>Haine-Saint-Paul Sentier n°37 Rue du Chef-Lieu</desc>
<link href="https://chemins.be/hainesaintpaul/sentier/37"/><trkseg>
<trkpt lat="50.454547" lon="4.188184"><time>2026-05-03T04:01:56Z</time></trkpt>
<trkpt lat="50.452347" lon="4.187561"><time>2026-05-03T04:11:56Z</time></trkpt>
<trkpt lat="50.451541" lon="4.187164"><time>2026-05-03T04:21:56Z</time></trkpt>
</trkseg></trk>
<trk>
<name>hllhl37</name>
<cmt>q</cmt>
<desc>Haine-Saint-Paul Sentier n°37 Rue du Chef-Lieu</desc>
<link href="https://chemins.be/hainesaintpaul/sentier/37"/><trkseg>
<trkpt lat="50.451541" lon="4.187164"><time>2026-05-03T04:21:56Z</time></trkpt>
<trkpt lat="50.450690" lon="4.187167"><time>2026-05-03T04:31:56Z</time></trkpt>
<trkpt lat="50.447708" lon="4.187175"><time>2026-05-03T04:41:56Z</time></trkpt>
</trkseg>
</trk>
<trk>
<name>hllhl38</name>
<cmt>q</cmt>
<desc>Haine-Saint-Paul Sentier n°38 Rue de Fanuelz</desc>
<link href="https://chemins.be/hainesaintpaul/sentier/38"/><trkseg>
<trkpt lat="50.449027" lon="4.185083"><time>2026-05-03T04:01:56Z</time></trkpt>
<trkpt lat="50.449730" lon="4.183409"><time>2026-05-03T04:11:56Z</time></trkpt>
<trkpt lat="50.449986" lon="4.182435"><time>2026-05-03T04:21:56Z</time></trkpt>
</trkseg></trk>
<trk>
<name>hllhl38</name>
<cmt>r</cmt>
<desc>Haine-Saint-Paul Sentier n°38 Rue de Fanuelz</desc>
<link href="https://chemins.be/hainesaintpaul/sentier/38"/><trkseg>
<trkpt lat="50.449986" lon="4.182435"><time>2026-05-03T04:21:56Z</time></trkpt>
<trkpt lat="50.451739" lon="4.175749"><time>2026-05-03T04:31:56Z</time></trkpt>
<trkpt lat="50.451917" lon="4.174429"><time>2026-05-03T04:41:56Z</time></trkpt>
</trkseg>
</trk>
<trk>
<name>hllhl39</name>
<cmt>q</cmt>
<desc>Haine-Saint-Paul Sentier n°39 Rue Nazal</desc>
<link href="https://chemins.be/hainesaintpaul/sentier/39"/><trkseg>
<trkpt lat="50.452244" lon="4.193033"><time>2026-05-03T04:01:56Z</time></trkpt>
<trkpt lat="50.452596" lon="4.192362"><time>2026-05-03T04:11:56Z</time></trkpt>
</trkseg>
</trk>
<trk>
<name>hllhl4</name>
<cmt>v</cmt>
<desc>Haine-Saint-Paul Chemin n°4 Rue Coron Paulette</desc>
<link href="https://chemins.be/hainesaintpaul/chemin/4"/><trkseg>
<trkpt lat="50.451999" lon="4.193215"><time>2026-05-03T04:01:56Z</time></trkpt>
<trkpt lat="50.452204" lon="4.191992"><time>2026-05-03T04:11:56Z</time></trkpt>
<trkpt lat="50.451972" lon="4.190040"><time>2026-05-03T04:21:56Z</time></trkpt>
<trkpt lat="50.452341" lon="4.187529"><time>2026-05-03T04:31:56Z</time></trkpt>
</trkseg></trk>
<trk>
<name>hllhl4</name>
<cmt>r</cmt>
<desc>Haine-Saint-Paul Chemin n°4 Rue Coron Paulette</desc>
<link href="https://chemins.be/hainesaintpaul/chemin/4"/><trkseg>
<trkpt lat="50.452341" lon="4.187529"><time>2026-05-03T04:31:56Z</time></trkpt>
<trkpt lat="50.452341" lon="4.185190"><time>2026-05-03T04:41:56Z</time></trkpt>
</trkseg></trk>
<trk>
<name>hllhl4</name>
<cmt>v</cmt>
<desc>Haine-Saint-Paul Chemin n°4 Rue Coron Paulette</desc>
<link href="https://chemins.be/hainesaintpaul/chemin/4"/><trkseg>
<trkpt lat="50.452341" lon="4.185190"><time>2026-05-03T04:41:56Z</time></trkpt>
<trkpt lat="50.452349" lon="4.183838"><time>2026-05-03T04:51:56Z</time></trkpt>
<trkpt lat="50.452472" lon="4.182615"><time>2026-05-03T05:01:56Z</time></trkpt>
<trkpt lat="50.452547" lon="4.182335"><time>2026-05-03T05:11:56Z</time></trkpt>
<trkpt lat="50.452647" lon="4.181985"><time>2026-05-03T05:21:56Z</time></trkpt>
<trkpt lat="50.452717" lon="4.181665"><time>2026-05-03T05:31:56Z</time></trkpt>
<trkpt lat="50.452737" lon="4.181455"><time>2026-05-03T05:41:56Z</time></trkpt>
<trkpt lat="50.452727" lon="4.181255"><time>2026-05-03T05:51:56Z</time></trkpt>
<trkpt lat="50.452717" lon="4.181085"><time>2026-05-03T06:01:56Z</time></trkpt>
<trkpt lat="50.452707" lon="4.181005"><time>2026-05-03T06:11:56Z</time></trkpt>
<trkpt lat="50.452687" lon="4.180735"><time>2026-05-03T06:21:56Z</time></trkpt>
<trkpt lat="50.452687" lon="4.180465"><time>2026-05-03T06:31:56Z</time></trkpt>
<trkpt lat="50.452677" lon="4.180075"><time>2026-05-03T06:41:56Z</time></trkpt>
<trkpt lat="50.452737" lon="4.179466"><time>2026-05-03T06:51:56Z</time></trkpt>
<trkpt lat="50.453544" lon="4.175416"><time>2026-05-03T07:01:56Z</time></trkpt>
</trkseg>
</trk>
<trk>
<name>hllhl40</name>
<cmt>q</cmt>
<desc>Haine-Saint-Paul Sentier n°40 </desc>
<link href="https://chemins.be/hainesaintpaul/sentier/40"/><trkseg>
<trkpt lat="50.453570" lon="4.184310"><time>2026-05-03T04:01:56Z</time></trkpt>
<trkpt lat="50.452958" lon="4.183393"><time>2026-05-03T04:11:56Z</time></trkpt>
</trkseg>
</trk>
<trk>
<name>hllhl7</name>
<cmt>s</cmt>
<desc>Haine-Saint-Paul Chemin n°7 </desc>
<link href="https://chemins.be/hainesaintpaul/chemin/7"/><trkseg>
<trkpt lat="50.459417" lon="4.190260"><time>2026-05-03T04:01:56Z</time></trkpt>
<trkpt lat="50.458584" lon="4.192738"><time>2026-05-03T04:11:56Z</time></trkpt>
<trkpt lat="50.458563" lon="4.193746"><time>2026-05-03T04:21:56Z</time></trkpt>
<trkpt lat="50.458864" lon="4.195291"><time>2026-05-03T04:31:56Z</time></trkpt>
</trkseg>
</trk>
<trk>
<name>hllhli1</name>
<cmt>q</cmt>
<desc>Haine-Saint-Paul Chemin n°i1 </desc>
<link href="https://chemins.be/hainesaintpaul/chemin/i1"/><trkseg>
<trkpt lat="50.453678" lon="4.193838"><time>2026-05-03T04:01:56Z</time></trkpt>
<trkpt lat="50.453454" lon="4.194416"><time>2026-05-03T04:11:56Z</time></trkpt>
<trkpt lat="50.453131" lon="4.194939"><time>2026-05-03T04:21:56Z</time></trkpt>
</trkseg>
</trk>
<trk>
<name>hllhli2</name>
<cmt>v</cmt>
<desc>Haine-Saint-Paul Chemin n°i2 Rue de la Gare de Formation</desc>
<link href="https://chemins.be/hainesaintpaul/chemin/i2"/><trkseg>
<trkpt lat="50.460958" lon="4.192657"><time>2026-05-03T04:01:56Z</time></trkpt>
<trkpt lat="50.461776" lon="4.192217"><time>2026-05-03T04:11:56Z</time></trkpt>
<trkpt lat="50.462270" lon="4.191891"><time>2026-05-03T04:21:56Z</time></trkpt>
<trkpt lat="50.462467" lon="4.191665"><time>2026-05-03T04:31:56Z</time></trkpt>
<trkpt lat="50.462584" lon="4.191623"><time>2026-05-03T04:41:56Z</time></trkpt>
<trkpt lat="50.462710" lon="4.191636"><time>2026-05-03T04:51:56Z</time></trkpt>
<trkpt lat="50.462836" lon="4.191762"><time>2026-05-03T05:01:56Z</time></trkpt>
<trkpt lat="50.462962" lon="4.192001"><time>2026-05-03T05:11:56Z</time></trkpt>
<trkpt lat="50.462998" lon="4.192142"><time>2026-05-03T05:21:56Z</time></trkpt>
<trkpt lat="50.463089" lon="4.192649"><time>2026-05-03T05:31:56Z</time></trkpt>
<trkpt lat="50.463180" lon="4.193240"><time>2026-05-03T05:41:56Z</time></trkpt>
<trkpt lat="50.463261" lon="4.193465"><time>2026-05-03T05:51:56Z</time></trkpt>
<trkpt lat="50.463378" lon="4.193690"><time>2026-05-03T06:01:56Z</time></trkpt>
<trkpt lat="50.463523" lon="4.194126"><time>2026-05-03T06:11:56Z</time></trkpt>
<trkpt lat="50.463559" lon="4.194492"><time>2026-05-03T06:21:56Z</time></trkpt>
</trkseg>
</trk>
<trk>
<name>hllhli3</name>
<cmt>v</cmt>
<desc>Haine-Saint-Paul Sentier n°i3 </desc>
<link href="https://chemins.be/hainesaintpaul/sentier/i3"/><trkseg>
<trkpt lat="50.460437" lon="4.183139"><time>2026-05-03T04:01:56Z</time></trkpt>
<trkpt lat="50.459002" lon="4.180918"><time>2026-05-03T04:11:56Z</time></trkpt>
</trkseg>
</trk>
<trk>
<name>hllhli4</name>
<cmt>v</cmt>
<desc>Haine-Saint-Paul Chemin n°i4 </desc>
<link href="https://chemins.be/hainesaintpaul/chemin/i4"/><trkseg>
<trkpt lat="50.464184" lon="4.203451"><time>2026-05-03T04:01:56Z</time></trkpt>
<trkpt lat="50.464854" lon="4.201176"><time>2026-05-03T04:11:56Z</time></trkpt>
<trkpt lat="50.465496" lon="4.200146"><time>2026-05-03T04:21:56Z</time></trkpt>
<trkpt lat="50.466015" lon="4.200103"><time>2026-05-03T04:31:56Z</time></trkpt>
</trkseg>
</trk>
<trk>
<name>hllhli5</name>
<cmt>v</cmt>
<desc>Haine-Saint-Paul Sentier n°i5 </desc>
<link href="https://chemins.be/hainesaintpaul/sentier/i5"/><trkseg>
<trkpt lat="50.454577" lon="4.192613"><time>2026-05-03T04:01:56Z</time></trkpt>
<trkpt lat="50.454534" lon="4.192925"><time>2026-05-03T04:11:56Z</time></trkpt>
<trkpt lat="50.454212" lon="4.193628"><time>2026-05-03T04:21:56Z</time></trkpt>
<trkpt lat="50.454184" lon="4.194412"><time>2026-05-03T04:31:56Z</time></trkpt>
<trkpt lat="50.453967" lon="4.194854"><time>2026-05-03T04:41:56Z</time></trkpt>
<trkpt lat="50.453899" lon="4.195157"><time>2026-05-03T04:51:56Z</time></trkpt>
<trkpt lat="50.453785" lon="4.195342"><time>2026-05-03T05:01:56Z</time></trkpt>
</trkseg>
</trk>
<trk>
<name>hllhli6</name>
<cmt>v</cmt>
<desc>Haine-Saint-Paul Sentier n°i6 </desc>
<link href="https://chemins.be/hainesaintpaul/sentier/i6"/><trkseg>
<trkpt lat="50.456646" lon="4.192098"><time>2026-05-03T04:01:56Z</time></trkpt>
<trkpt lat="50.456591" lon="4.191121"><time>2026-05-03T04:11:56Z</time></trkpt>
<trkpt lat="50.457022" lon="4.189222"><time>2026-05-03T04:21:56Z</time></trkpt>
</trkseg>
</trk>
<trk>
<name>hllhlp1</name>
<cmt>r</cmt>
<desc>Haine-Saint-Paul Chemin particulier n°p1 Rue des Fonds Coppée</desc>
<link href="https://chemins.be/hainesaintpaul/chemin/p1"/><trkseg>
<trkpt lat="50.456567" lon="4.179375"><time>2026-05-03T04:01:56Z</time></trkpt>
<trkpt lat="50.457448" lon="4.179515"><time>2026-05-03T04:11:56Z</time></trkpt>
<trkpt lat="50.458363" lon="4.180105"><time>2026-05-03T04:21:56Z</time></trkpt>
<trkpt lat="50.458999" lon="4.180931"><time>2026-05-03T04:31:56Z</time></trkpt>
</trkseg>
</trk>
<trk>
<name>hllhlp2</name>
<cmt>r</cmt>
<desc>Haine-Saint-Paul Sentier particulier n°p2 Rue Coron Postia</desc>
<link href="https://chemins.be/hainesaintpaul/sentier/p2"/><trkseg>
<trkpt lat="50.460682" lon="4.185354"><time>2026-05-03T04:01:56Z</time></trkpt>
<trkpt lat="50.460818" lon="4.184871"><time>2026-05-03T04:11:56Z</time></trkpt>
<trkpt lat="50.460862" lon="4.184124"><time>2026-05-03T04:21:56Z</time></trkpt>
<trkpt lat="50.460870" lon="4.184007"><time>2026-05-03T04:31:56Z</time></trkpt>
<trkpt lat="50.460422" lon="4.183155"><time>2026-05-03T04:41:56Z</time></trkpt>
</trkseg>
</trk>
</gpx>